sensor_id;sensor_type;location;lat;lon;timestamp;pressure;altitude;pressure_sealevel;temperature;humidity
62800;BME280;48842;51.046;13.796;2023-03-04T00:00:35;100894.97;;;3.74;nan
62800;BME280;48842;51.046;13.796;2023-03-04T00:03:00;100889.47;;;3.66;nan
62800;BME280;48842;51.046;13.796;2023-03-04T00:05:26;100898.16;;;3.66;nan
62800;BME280;48842;51.046;13.796;2023-03-04T00:07:51;100885.50;;;3.74;nan
62800;BME280;48842;51.046;13.796;2023-03-04T00:10:16;100877.69;;;3.73;nan
62800;BME280;48842;51.046;13.796;2023-03-04T00:12:42;100874.97;;;3.70;nan
62800;BME280;48842;51.046;13.796;2023-03-04T00:15:07;100881.09;;;3.72;nan
62800;BME280;48842;51.046;13.796;2023-03-04T00:17:33;100877.63;;;3.71;nan
62800;BME280;48842;51.046;13.796;2023-03-04T00:19:58;100881.94;;;3.72;nan
62800;BME280;48842;51.046;13.796;2023-03-04T00:22:23;100874.13;;;3.71;nan
62800;BME280;48842;51.046;13.796;2023-03-04T00:24:48;100873.13;;;3.67;nan
62800;BME280;48842;51.046;13.796;2023-03-04T00:27:14;100864.38;;;3.65;nan
62800;BME280;48842;51.046;13.796;2023-03-04T00:29:39;100866.06;;;3.63;nan
62800;BME280;48842;51.046;13.796;2023-03-04T00:32:04;100856.94;;;3.73;nan
62800;BME280;48842;51.046;13.796;2023-03-04T00:34:29;100861.38;;;3.75;nan
62800;BME280;48842;51.046;13.796;2023-03-04T00:36:55;100856.09;;;3.74;nan
62800;BME280;48842;51.046;13.796;2023-03-04T00:39:26;100861.50;;;3.78;nan
62800;BME280;48842;51.046;13.796;2023-03-04T00:41:51;100854.88;;;3.87;nan
62800;BME280;48842;51.046;13.796;2023-03-04T00:44:16;100866.97;;;3.86;nan
62800;BME280;48842;51.046;13.796;2023-03-04T00:46:41;100850.72;;;3.90;nan
62800;BME280;48842;51.046;13.796;2023-03-04T00:49:07;100849.00;;;3.91;nan
62800;BME280;48842;51.046;13.796;2023-03-04T00:51:33;100848.09;;;3.89;nan
62800;BME280;48842;51.046;13.796;2023-03-04T00:53:58;100848.09;;;3.89;nan
62800;BME280;48842;51.046;13.796;2023-03-04T00:56:23;100847.44;;;3.94;nan
62800;BME280;48842;51.046;13.796;2023-03-04T00:58:48;100843.06;;;3.93;nan
62800;BME280;48842;51.046;13.796;2023-03-04T01:01:14;100841.41;;;3.95;nan
62800;BME280;48842;51.046;13.796;2023-03-04T01:03:39;100833.63;;;3.95;nan
62800;BME280;48842;51.046;13.796;2023-03-04T01:06:11;100838.81;;;3.95;nan
62800;BME280;48842;51.046;13.796;2023-03-04T01:08:39;100838.00;;;3.96;nan
62800;BME280;48842;51.046;13.796;2023-03-04T01:11:05;100837.72;;;3.89;nan
62800;BME280;48842;51.046;13.796;2023-03-04T01:13:31;100821.91;;;3.82;nan
62800;BME280;48842;51.046;13.796;2023-03-04T01:15:56;100823.84;;;3.88;nan
62800;BME280;48842;51.046;13.796;2023-03-04T01:18:22;100822.94;;;3.86;nan
62800;BME280;48842;51.046;13.796;2023-03-04T01:20:47;100811.81;;;3.89;nan
62800;BME280;48842;51.046;13.796;2023-03-04T01:23:13;100814.88;;;3.78;nan
62800;BME280;48842;51.046;13.796;2023-03-04T01:25:38;100807.44;;;3.88;nan
62800;BME280;48842;51.046;13.796;2023-03-04T01:28:03;100804.19;;;3.93;nan
62800;BME280;48842;51.046;13.796;2023-03-04T01:30:28;100790.59;;;3.99;nan
62800;BME280;48842;51.046;13.796;2023-03-04T01:32:54;100793.47;;;4.07;nan
62800;BME280;48842;51.046;13.796;2023-03-04T01:35:19;100791.88;;;4.10;nan
62800;BME280;48842;51.046;13.796;2023-03-04T01:37:44;100788.22;;;4.05;nan
62800;BME280;48842;51.046;13.796;2023-03-04T01:40:10;100790.50;;;3.96;nan
62800;BME280;48842;51.046;13.796;2023-03-04T01:42:35;100785.41;;;3.99;nan
62800;BME280;48842;51.046;13.796;2023-03-04T01:45:01;100782.03;;;4.01;nan
62800;BME280;48842;51.046;13.796;2023-03-04T01:47:29;100781.28;;;4.04;nan
62800;BME280;48842;51.046;13.796;2023-03-04T01:49:56;100787.38;;;4.05;nan
62800;BME280;48842;51.046;13.796;2023-03-04T01:52:23;100782.03;;;4.01;nan
62800;BME280;48842;51.046;13.796;2023-03-04T01:54:48;100775.97;;;4.01;nan
62800;BME280;48842;51.046;13.796;2023-03-04T01:57:19;100779.28;;;3.97;nan
62800;BME280;48842;51.046;13.796;2023-03-04T01:59:44;100775.75;;;3.95;nan
62800;BME280;48842;51.046;13.796;2023-03-04T02:02:10;100761.84;;;3.93;nan
62800;BME280;48842;51.046;13.796;2023-03-04T02:04:36;100779.75;;;3.87;nan
62800;BME280;48842;51.046;13.796;2023-03-04T02:07:03;100768.75;;;3.92;nan
62800;BME280;48842;51.046;13.796;2023-03-04T02:09:30;100763.97;;;3.80;nan
62800;BME280;48842;51.046;13.796;2023-03-04T02:11:56;100759.97;;;3.89;nan
62800;BME280;48842;51.046;13.796;2023-03-04T02:14:22;100754.00;;;3.91;nan
62800;BME280;48842;51.046;13.796;2023-03-04T02:16:48;100759.88;;;3.86;nan
62800;BME280;48842;51.046;13.796;2023-03-04T02:19:42;100755.63;;;3.88;nan
62800;BME280;48842;51.046;13.796;2023-03-04T02:22:09;100759.94;;;3.87;nan
62800;BME280;48842;51.046;13.796;2023-03-04T02:25:08;100757.56;;;3.93;nan
62800;BME280;48842;51.046;13.796;2023-03-04T02:27:34;100750.59;;;3.92;nan
62800;BME280;48842;51.046;13.796;2023-03-04T02:30:00;100763.16;;;3.81;nan
62800;BME280;48842;51.046;13.796;2023-03-04T02:32:25;100758.03;;;3.83;nan
62800;BME280;48842;51.046;13.796;2023-03-04T02:34:50;100745.91;;;3.82;nan
62800;BME280;48842;51.046;13.796;2023-03-04T02:37:17;100736.56;;;3.86;nan
62800;BME280;48842;51.046;13.796;2023-03-04T02:39:45;100745.31;;;3.89;nan
62800;BME280;48842;51.046;13.796;2023-03-04T02:42:11;100734.00;;;3.87;nan
62800;BME280;48842;51.046;13.796;2023-03-04T02:44:39;100738.47;;;3.91;nan
62800;BME280;48842;51.046;13.796;2023-03-04T02:47:08;100738.47;;;3.91;nan
62800;BME280;48842;51.046;13.796;2023-03-04T02:49:35;100728.09;;;3.91;nan
62800;BME280;48842;51.046;13.796;2023-03-04T02:52:03;100722.91;;;3.91;nan
62800;BME280;48842;51.046;13.796;2023-03-04T02:54:29;100728.84;;;3.87;nan
62800;BME280;48842;51.046;13.796;2023-03-04T02:56:57;100719.28;;;3.86;nan
62800;BME280;48842;51.046;13.796;2023-03-04T02:59:23;100713.22;;;3.86;nan
62800;BME280;48842;51.046;13.796;2023-03-04T03:01:49;100714.31;;;3.92;nan
62800;BME280;48842;51.046;13.796;2023-03-04T03:04:14;100713.44;;;3.92;nan
62800;BME280;48842;51.046;13.796;2023-03-04T03:06:39;100720.09;;;3.85;nan
62800;BME280;48842;51.046;13.796;2023-03-04T03:09:05;100717.50;;;3.85;nan
62800;BME280;48842;51.046;13.796;2023-03-04T03:11:31;100714.84;;;3.83;nan
62800;BME280;48842;51.046;13.796;2023-03-04T03:13:56;100706.31;;;3.86;nan
62800;BME280;48842;51.046;13.796;2023-03-04T03:16:22;100704.66;;;3.88;nan
62800;BME280;48842;51.046;13.796;2023-03-04T03:18:47;100700.34;;;3.87;nan
62800;BME280;48842;51.046;13.796;2023-03-04T03:21:12;100702.06;;;3.88;nan
62800;BME280;48842;51.046;13.796;2023-03-04T03:23:38;100702.19;;;3.91;nan
62800;BME280;48842;51.046;13.796;2023-03-04T03:26:04;100703.09;;;3.92;nan
62800;BME280;48842;51.046;13.796;2023-03-04T03:28:29;100694.25;;;3.87;nan
62800;BME280;48842;51.046;13.796;2023-03-04T03:30:55;100690.72;;;3.84;nan
62800;BME280;48842;51.046;13.796;2023-03-04T03:33:21;100695.91;;;3.84;nan
62800;BME280;48842;51.046;13.796;2023-03-04T03:35:46;100706.97;;;3.80;nan
62800;BME280;48842;51.046;13.796;2023-03-04T03:38:11;100681.88;;;3.79;nan
62800;BME280;48842;51.046;13.796;2023-03-04T03:40:37;100678.81;;;3.90;nan
62800;BME280;48842;51.046;13.796;2023-03-04T03:43:02;100693.31;;;3.84;nan
62800;BME280;48842;51.046;13.796;2023-03-04T03:45:28;100675.34;;;3.89;nan
62800;BME280;48842;51.046;13.796;2023-03-04T03:47:53;100679.41;;;3.82;nan
62800;BME280;48842;51.046;13.796;2023-03-04T03:50:18;100682.13;;;3.86;nan
62800;BME280;48842;51.046;13.796;2023-03-04T03:52:43;100680.53;;;3.89;nan
62800;BME280;48842;51.046;13.796;2023-03-04T03:55:09;100679.81;;;3.93;nan
62800;BME280;48842;51.046;13.796;2023-03-04T03:57:34;100695.97;;;3.86;nan
62800;BME280;48842;51.046;13.796;2023-03-04T04:00:00;100682.91;;;3.83;nan
62800;BME280;48842;51.046;13.796;2023-03-04T04:02:25;100686.53;;;3.88;nan
62800;BME280;48842;51.046;13.796;2023-03-04T04:04:50;100698.56;;;3.86;nan
62800;BME280;48842;51.046;13.796;2023-03-04T04:07:16;100677.00;;;3.87;nan
62800;BME280;48842;51.046;13.796;2023-03-04T04:09:41;100693.47;;;3.89;nan
62800;BME280;48842;51.046;13.796;2023-03-04T04:12:06;100683.81;;;3.85;nan
62800;BME280;48842;51.046;13.796;2023-03-04T04:14:32;100686.47;;;3.87;nan
62800;BME280;48842;51.046;13.796;2023-03-04T04:16:57;100706.31;;;3.86;nan
62800;BME280;48842;51.046;13.796;2023-03-04T04:19:23;100691.59;;;3.85;nan
62800;BME280;48842;51.046;13.796;2023-03-04T04:21:48;100688.19;;;3.86;nan
62800;BME280;48842;51.046;13.796;2023-03-04T04:24:13;100691.72;;;3.88;nan
62800;BME280;48842;51.046;13.796;2023-03-04T04:26:39;100687.66;;;3.95;nan
62800;BME280;48842;51.046;13.796;2023-03-04T04:29:06;100698.81;;;3.94;nan
62800;BME280;48842;51.046;13.796;2023-03-04T04:31:32;100700.44;;;3.90;nan
62800;BME280;48842;51.046;13.796;2023-03-04T04:33:57;100696.88;;;3.88;nan
62800;BME280;48842;51.046;13.796;2023-03-04T04:36:23;100685.75;;;3.91;nan
62800;BME280;48842;51.046;13.796;2023-03-04T04:38:48;100692.56;;;3.87;nan
62800;BME280;48842;51.046;13.796;2023-03-04T04:41:25;100695.97;;;3.86;nan
62800;BME280;48842;51.046;13.796;2023-03-04T04:43:51;100687.53;;;3.92;nan
62800;BME280;48842;51.046;13.796;2023-03-04T04:46:17;100678.16;;;3.95;nan
62800;BME280;48842;51.046;13.796;2023-03-04T04:48:43;100679.16;;;3.99;nan
62800;BME280;48842;51.046;13.796;2023-03-04T04:51:09;100691.31;;;4.01;nan
62800;BME280;48842;51.046;13.796;2023-03-04T04:53:34;100684.41;;;4.00;nan
62800;BME280;48842;51.046;13.796;2023-03-04T04:56:00;100676.56;;;3.99;nan
62800;BME280;48842;51.046;13.796;2023-03-04T04:58:31;100675.66;;;3.98;nan
62800;BME280;48842;51.046;13.796;2023-03-04T05:00:56;100666.31;;;4.02;nan
62800;BME280;48842;51.046;13.796;2023-03-04T05:03:22;100668.44;;;3.90;nan
62800;BME280;48842;51.046;13.796;2023-03-04T05:05:47;100670.47;;;3.98;nan
62800;BME280;48842;51.046;13.796;2023-03-04T05:08:12;100668.63;;;3.94;nan
62800;BME280;48842;51.046;13.796;2023-03-04T05:10:38;100676.72;;;4.04;nan
62800;BME280;48842;51.046;13.796;2023-03-04T05:13:03;100672.47;;;4.06;nan
62800;BME280;48842;51.046;13.796;2023-03-04T05:15:28;100669.06;;;4.07;nan
62800;BME280;48842;51.046;13.796;2023-03-04T05:17:53;100677.81;;;4.10;nan
62800;BME280;48842;51.046;13.796;2023-03-04T05:20:19;100670.13;;;4.12;nan
62800;BME280;48842;51.046;13.796;2023-03-04T05:22:44;100665.84;;;4.14;nan
62800;BME280;48842;51.046;13.796;2023-03-04T05:25:09;100673.63;;;4.14;nan
62800;BME280;48842;51.046;13.796;2023-03-04T05:27:34;100678.72;;;4.11;nan
62800;BME280;48842;51.046;13.796;2023-03-04T05:30:00;100673.75;;;4.17;nan
62800;BME280;48842;51.046;13.796;2023-03-04T05:32:25;100664.28;;;4.19;nan
62800;BME280;48842;51.046;13.796;2023-03-04T05:34:51;100652.94;;;4.15;nan
62800;BME280;48842;51.046;13.796;2023-03-04T05:37:17;100652.22;;;4.19;nan
62800;BME280;48842;51.046;13.796;2023-03-04T05:39:42;100654.06;;;4.22;nan
62800;BME280;48842;51.046;13.796;2023-03-04T05:42:07;100656.75;;;4.25;nan
62800;BME280;48842;51.046;13.796;2023-03-04T05:44:32;100647.97;;;4.22;nan
62800;BME280;48842;51.046;13.796;2023-03-04T05:46:58;100639.44;;;4.24;nan
62800;BME280;48842;51.046;13.796;2023-03-04T05:49:23;100657.47;;;4.21;nan
62800;BME280;48842;51.046;13.796;2023-03-04T05:51:48;100643.75;;;4.24;nan
62800;BME280;48842;51.046;13.796;2023-03-04T05:54:13;100637.88;;;4.29;nan
62800;BME280;48842;51.046;13.796;2023-03-04T05:56:40;100643.91;;;4.28;nan
62800;BME280;48842;51.046;13.796;2023-03-04T05:59:05;100654.38;;;4.31;nan
62800;BME280;48842;51.046;13.796;2023-03-04T06:01:30;100644.03;;;4.33;nan
62800;BME280;48842;51.046;13.796;2023-03-04T06:03:55;100638.00;;;4.32;nan
62800;BME280;48842;51.046;13.796;2023-03-04T06:06:21;100660.47;;;4.33;nan
62800;BME280;48842;51.046;13.796;2023-03-04T06:08:46;100641.31;;;4.28;nan
62800;BME280;48842;51.046;13.796;2023-03-04T06:11:11;100648.13;;;4.26;nan
62800;BME280;48842;51.046;13.796;2023-03-04T06:13:37;100643.06;;;4.29;nan
62800;BME280;48842;51.046;13.796;2023-03-04T06:16:03;100636.22;;;4.31;nan
62800;BME280;48842;51.046;13.796;2023-03-04T06:18:28;100648.25;;;4.29;nan
62800;BME280;48842;51.046;13.796;2023-03-04T06:21:01;100640.47;;;4.29;nan
62800;BME280;48842;51.046;13.796;2023-03-04T06:23:28;100641.41;;;4.31;nan
62800;BME280;48842;51.046;13.796;2023-03-04T06:25:56;100636.53;;;4.41;nan
62800;BME280;48842;51.046;13.796;2023-03-04T06:28:22;100635.13;;;4.50;nan
62800;BME280;48842;51.046;13.796;2023-03-04T06:30:47;100643.91;;;4.55;nan
62800;BME280;48842;51.046;13.796;2023-03-04T06:33:15;100643.09;;;4.57;nan
62800;BME280;48842;51.046;13.796;2023-03-04T06:35:40;100635.38;;;4.58;nan
62800;BME280;48842;51.046;13.796;2023-03-04T06:38:05;100639.69;;;4.58;nan
62800;BME280;48842;51.046;13.796;2023-03-04T06:40:31;100649.00;;;4.52;nan
62800;BME280;48842;51.046;13.796;2023-03-04T06:42:56;100640.34;;;4.52;nan
62800;BME280;48842;51.046;13.796;2023-03-04T06:45:21;100637.56;;;4.46;nan
62800;BME280;48842;51.046;13.796;2023-03-04T06:47:46;100641.69;;;4.41;nan
62800;BME280;48842;51.046;13.796;2023-03-04T06:50:12;100645.34;;;4.46;nan
62800;BME280;48842;51.046;13.796;2023-03-04T06:52:38;100642.22;;;4.30;nan
62800;BME280;48842;51.046;13.796;2023-03-04T06:55:04;100634.88;;;4.43;nan
62800;BME280;48842;51.046;13.796;2023-03-04T06:57:29;100639.97;;;4.40;nan
62800;BME280;48842;51.046;13.796;2023-03-04T06:59:55;100638.50;;;4.48;nan
62800;BME280;48842;51.046;13.796;2023-03-04T07:02:20;100633.34;;;4.49;nan
62800;BME280;48842;51.046;13.796;2023-03-04T07:04:45;100643.63;;;4.46;nan
62800;BME280;48842;51.046;13.796;2023-03-04T07:07:11;100638.38;;;4.45;nan
62800;BME280;48842;51.046;13.796;2023-03-04T07:09:36;100630.91;;;4.54;nan
62800;BME280;48842;51.046;13.796;2023-03-04T07:12:02;100638.81;;;4.57;nan
62800;BME280;48842;51.046;13.796;2023-03-04T07:14:27;100631.66;;;4.50;nan
62800;BME280;48842;51.046;13.796;2023-03-04T07:16:53;100631.91;;;4.58;nan
62800;BME280;48842;51.046;13.796;2023-03-04T07:19:18;100638.81;;;4.57;nan
62800;BME280;48842;51.046;13.796;2023-03-04T07:21:43;100633.81;;;4.63;nan
62800;BME280;48842;51.046;13.796;2023-03-04T07:24:09;100631.38;;;4.68;nan
62800;BME280;48842;51.046;13.796;2023-03-04T07:26:34;100629.50;;;4.64;nan
62800;BME280;48842;51.046;13.796;2023-03-04T07:29:01;100626.97;;;4.65;nan
62800;BME280;48842;51.046;13.796;2023-03-04T07:31:28;100626.00;;;4.62;nan
62800;BME280;48842;51.046;13.796;2023-03-04T07:33:59;100630.19;;;4.58;nan
62800;BME280;48842;51.046;13.796;2023-03-04T07:36:25;100633.81;;;4.63;nan
62800;BME280;48842;51.046;13.796;2023-03-04T07:38:51;100631.22;;;4.63;nan
62800;BME280;48842;51.046;13.796;2023-03-04T07:41:19;100629.56;;;4.65;nan
62800;BME280;48842;51.046;13.796;2023-03-04T07:43:44;100633.28;;;4.74;nan
62800;BME280;48842;51.046;13.796;2023-03-04T07:46:10;100629.75;;;4.71;nan
62800;BME280;48842;51.046;13.796;2023-03-04T07:48:35;100625.69;;;4.80;nan
62800;BME280;48842;51.046;13.796;2023-03-04T07:53:31;100624.13;;;4.85;nan
62800;BME280;48842;51.046;13.796;2023-03-04T07:55:56;100619.13;;;4.91;nan
62800;BME280;48842;51.046;13.796;2023-03-04T07:58:21;100635.53;;;4.90;nan
62800;BME280;48842;51.046;13.796;2023-03-04T08:00:47;100635.56;;;4.92;nan
62800;BME280;48842;51.046;13.796;2023-03-04T08:03:12;100627.94;;;4.96;nan
62800;BME280;48842;51.046;13.796;2023-03-04T08:05:40;100624.75;;;5.05;nan
62800;BME280;48842;51.046;13.796;2023-03-04T08:08:05;100625.75;;;5.09;nan
62800;BME280;48842;51.046;13.796;2023-03-04T08:10:31;100611.84;;;5.08;nan
62800;BME280;48842;51.046;13.796;2023-03-04T08:12:56;100614.72;;;5.16;nan
62800;BME280;48842;51.046;13.796;2023-03-04T08:15:21;100613.13;;;5.21;nan
62800;BME280;48842;51.046;13.796;2023-03-04T08:17:46;100601.13;;;5.24;nan
62800;BME280;48842;51.046;13.796;2023-03-04T08:20:12;100614.88;;;5.22;nan
62800;BME280;48842;51.046;13.796;2023-03-04T08:22:37;100607.09;;;5.22;nan
62800;BME280;48842;51.046;13.796;2023-03-04T08:25:03;100619.22;;;5.21;nan
62800;BME280;48842;51.046;13.796;2023-03-04T08:27:28;100610.44;;;5.18;nan
62800;BME280;48842;51.046;13.796;2023-03-04T08:29:53;100605.41;;;5.24;nan
62800;BME280;48842;51.046;13.796;2023-03-04T08:32:18;100601.28;;;5.31;nan
62800;BME280;48842;51.046;13.796;2023-03-04T08:34:44;100608.53;;;5.41;nan
62800;BME280;48842;51.046;13.796;2023-03-04T08:37:09;100606.34;;;5.55;nan
62800;BME280;48842;51.046;13.796;2023-03-04T08:39:34;100602.09;;;5.58;nan
62800;BME280;48842;51.046;13.796;2023-03-04T08:42:00;100604.72;;;5.60;nan
62800;BME280;48842;51.046;13.796;2023-03-04T08:44:26;100614.50;;;5.38;nan
62800;BME280;48842;51.046;13.796;2023-03-04T08:46:51;100601.81;;;5.48;nan
62800;BME280;48842;51.046;13.796;2023-03-04T08:49:16;100595.09;;;5.56;nan
62800;BME280;48842;51.046;13.796;2023-03-04T08:51:42;100598.78;;;5.64;nan
62800;BME280;48842;51.046;13.796;2023-03-04T08:54:09;100602.50;;;5.72;nan
62800;BME280;48842;51.046;13.796;2023-03-04T08:56:34;100600.19;;;5.83;nan
62800;BME280;48842;51.046;13.796;2023-03-04T08:58:59;100594.34;;;5.92;nan
62800;BME280;48842;51.046;13.796;2023-03-04T09:01:24;100591.22;;;6.04;nan
62800;BME280;48842;51.046;13.796;2023-03-04T09:03:50;100599.97;;;6.07;nan
62800;BME280;48842;51.046;13.796;2023-03-04T09:06:16;100593.03;;;6.06;nan
62800;BME280;48842;51.046;13.796;2023-03-04T09:08:42;100591.81;;;5.95;nan
62800;BME280;48842;51.046;13.796;2023-03-04T09:11:08;100591.13;;;5.99;nan
62800;BME280;48842;51.046;13.796;2023-03-04T09:13:34;100595.06;;;5.86;nan
62800;BME280;48842;51.046;13.796;2023-03-04T09:15:59;100592.56;;;5.91;nan
62800;BME280;48842;51.046;13.796;2023-03-04T09:18:26;100603.59;;;5.82;nan
62800;BME280;48842;51.046;13.796;2023-03-04T09:20:52;100596.91;;;5.90;nan
62800;BME280;48842;51.046;13.796;2023-03-04T09:23:17;100591.94;;;5.98;nan
62800;BME280;48842;51.046;13.796;2023-03-04T09:25:43;100600.88;;;6.08;nan
62800;BME280;48842;51.046;13.796;2023-03-04T09:28:10;100597.59;;;6.15;nan
62800;BME280;48842;51.046;13.796;2023-03-04T09:30:37;100603.81;;;6.22;nan
62800;BME280;48842;51.046;13.796;2023-03-04T09:33:02;100596.59;;;6.10;nan
62800;BME280;48842;51.046;13.796;2023-03-04T09:35:28;100584.22;;;6.01;nan
62800;BME280;48842;51.046;13.796;2023-03-04T09:37:54;100603.09;;;5.95;nan
62800;BME280;48842;51.046;13.796;2023-03-04T09:43:00;100592.09;;;6.04;nan
62800;BME280;48842;51.046;13.796;2023-03-04T09:45:35;100589.34;;;5.98;nan
62800;BME280;48842;51.046;13.796;2023-03-04T09:48:02;100577.28;;;6.00;nan
62800;BME280;48842;51.046;13.796;2023-03-04T09:50:30;100591.34;;;6.08;nan
62800;BME280;48842;51.046;13.796;2023-03-04T09:53:19;100588.50;;;5.99;nan
62800;BME280;48842;51.046;13.796;2023-03-04T09:55:51;100585.28;;;6.08;nan
62800;BME280;48842;51.046;13.796;2023-03-04T09:58:50;100575.59;;;6.02;nan
62800;BME280;48842;51.046;13.796;2023-03-04T10:01:54;100581.66;;;6.03;nan
62800;BME280;48842;51.046;13.796;2023-03-04T10:04:34;100572.34;;;6.11;nan
62800;BME280;48842;51.046;13.796;2023-03-04T10:07:05;100564.66;;;6.16;nan
62800;BME280;48842;51.046;13.796;2023-03-04T10:09:47;100559.56;;;6.20;nan
62800;BME280;48842;51.046;13.796;2023-03-04T10:12:19;100559.59;;;6.22;nan
62800;BME280;48842;51.046;13.796;2023-03-04T10:14:48;100553.72;;;6.29;nan
62800;BME280;48842;51.046;13.796;2023-03-04T10:17:23;100542.25;;;6.21;nan
62800;BME280;48842;51.046;13.796;2023-03-04T10:22:35;100568.38;;;6.25;nan
62800;BME280;48842;51.046;13.796;2023-03-04T10:25:20;100556.03;;;6.17;nan
62800;BME280;48842;51.046;13.796;2023-03-04T10:28:10;100546.59;;;6.22;nan
62800;BME280;48842;51.046;13.796;2023-03-04T10:30:57;100548.59;;;6.32;nan
62800;BME280;48842;51.046;13.796;2023-03-04T10:33:29;100549.50;;;6.33;nan
62800;BME280;48842;51.046;13.796;2023-03-04T10:36:04;100542.50;;;6.32;nan
62800;BME280;48842;51.046;13.796;2023-03-04T10:38:40;100541.94;;;6.43;nan
62800;BME280;48842;51.046;13.796;2023-03-04T10:41:14;100533.44;;;6.51;nan
62800;BME280;48842;51.046;13.796;2023-03-04T10:43:41;100532.03;;;6.65;nan
62800;BME280;48842;51.046;13.796;2023-03-04T10:46:10;100538.44;;;6.41;nan
62800;BME280;48842;51.046;13.796;2023-03-04T10:48:36;100533.44;;;6.51;nan
62800;BME280;48842;51.046;13.796;2023-03-04T10:51:26;100542.16;;;6.53;nan
62800;BME280;48842;51.046;13.796;2023-03-04T10:53:57;100533.28;;;6.44;nan
62800;BME280;48842;51.046;13.796;2023-03-04T10:56:34;100545.09;;;6.30;nan
62800;BME280;48842;51.046;13.796;2023-03-04T10:59:40;100539.72;;;6.24;nan
62800;BME280;48842;51.046;13.796;2023-03-04T11:02:28;100540.03;;;6.36;nan
62800;BME280;48842;51.046;13.796;2023-03-04T11:07:48;100532.19;;;6.35;nan
62800;BME280;48842;51.046;13.796;2023-03-04T11:10:23;100519.34;;;6.42;nan
62800;BME280;48842;51.046;13.796;2023-03-04T11:15:24;100528.91;;;6.43;nan
62800;BME280;48842;51.046;13.796;2023-03-04T11:18:05;100522.88;;;6.44;nan
62800;BME280;48842;51.046;13.796;2023-03-04T11:20:43;100523.69;;;6.42;nan
62800;BME280;48842;51.046;13.796;2023-03-04T11:23:35;100518.38;;;6.37;nan
62800;BME280;48842;51.046;13.796;2023-03-04T11:26:08;100502.00;;;6.41;nan
62800;BME280;48842;51.046;13.796;2023-03-04T11:31:28;100516.66;;;6.76;nan
62800;BME280;48842;51.046;13.796;2023-03-04T11:34:03;100504.09;;;6.97;nan
62800;BME280;48842;51.046;13.796;2023-03-04T11:36:37;100515.78;;;7.16;nan
62800;BME280;48842;51.046;13.796;2023-03-04T11:39:15;100506.03;;;7.08;nan
62800;BME280;48842;51.046;13.796;2023-03-04T11:41:49;100519.03;;;7.06;nan
62800;BME280;48842;51.046;13.796;2023-03-04T11:44:16;100506.50;;;6.87;nan
62800;BME280;48842;51.046;13.796;2023-03-04T11:46:50;100500.50;;;6.91;nan
62800;BME280;48842;51.046;13.796;2023-03-04T11:49:52;100511.63;;;6.84;nan
62800;BME280;48842;51.046;13.796;2023-03-04T11:52:49;100497.63;;;6.78;nan
62800;BME280;48842;51.046;13.796;2023-03-04T11:55:33;100506.34;;;6.80;nan
62800;BME280;48842;51.046;13.796;2023-03-04T12:01:14;100492.28;;;6.72;nan
62800;BME280;48842;51.046;13.796;2023-03-04T12:09:17;100486.22;;;6.72;nan
62800;BME280;48842;51.046;13.796;2023-03-04T12:12:00;100483.72;;;6.78;nan
62800;BME280;48842;51.046;13.796;2023-03-04T12:14:42;100471.59;;;6.78;nan
62800;BME280;48842;51.046;13.796;2023-03-04T12:17:23;100496.03;;;6.85;nan
62800;BME280;48842;51.046;13.796;2023-03-04T12:23:02;100467.72;;;7.02;nan
62800;BME280;48842;51.046;13.796;2023-03-04T12:25:38;100463.59;;;7.12;nan
62800;BME280;48842;51.046;13.796;2023-03-04T12:31:29;100453.19;;;7.12;nan
62800;BME280;48842;51.046;13.796;2023-03-04T12:36:51;100455.34;;;7.33;nan
62800;BME280;48842;51.046;13.796;2023-03-04T12:42:03;100451.81;;;7.31;nan
62800;BME280;48842;51.046;13.796;2023-03-04T12:44:39;100439.72;;;7.33;nan
62800;BME280;48842;51.046;13.796;2023-03-04T12:50:12;100446.72;;;7.39;nan
62800;BME280;48842;51.046;13.796;2023-03-04T12:55:34;100441.38;;;7.31;nan
62800;BME280;48842;51.046;13.796;2023-03-04T12:58:00;100437.16;;;7.36;nan
62800;BME280;48842;51.046;13.796;2023-03-04T13:00:51;100447.47;;;7.31;nan
62800;BME280;48842;51.046;13.796;2023-03-04T13:12:00;100428.63;;;7.45;nan
62800;BME280;48842;51.046;13.796;2023-03-04T13:14:28;100428.72;;;7.51;nan
62800;BME280;48842;51.046;13.796;2023-03-04T13:16:59;100420.88;;;7.49;nan
62800;BME280;48842;51.046;13.796;2023-03-04T13:19:48;100420.09;;;7.54;nan
62800;BME280;48842;51.046;13.796;2023-03-04T13:30:42;100417.63;;;7.63;nan
62800;BME280;48842;51.046;13.796;2023-03-04T13:36:06;100409.69;;;7.55;nan
62800;BME280;48842;51.046;13.796;2023-03-04T13:41:47;100402.03;;;7.64;nan
62800;BME280;48842;51.046;13.796;2023-03-04T13:47:15;100401.28;;;7.73;nan
62800;BME280;48842;51.046;13.796;2023-03-04T13:49:41;100399.47;;;7.69;nan
62800;BME280;48842;51.046;13.796;2023-03-04T13:52:40;100383.81;;;7.67;nan
62800;BME280;48842;51.046;13.796;2023-03-04T13:57:56;100390.81;;;7.70;nan
62800;BME280;48842;51.046;13.796;2023-03-04T14:00:21;100383.09;;;7.76;nan
62800;BME280;48842;51.046;13.796;2023-03-04T14:02:47;100387.56;;;7.83;nan
62800;BME280;48842;51.046;13.796;2023-03-04T14:05:12;100385.00;;;7.86;nan
62800;BME280;48842;51.046;13.796;2023-03-04T14:07:37;100387.59;;;7.86;nan
62800;BME280;48842;51.046;13.796;2023-03-04T14:10:20;100380.69;;;7.89;nan
62800;BME280;48842;51.046;13.796;2023-03-04T14:12:49;100369.44;;;7.94;nan
62800;BME280;48842;51.046;13.796;2023-03-04T14:15:24;100379.97;;;7.97;nan
62800;BME280;48842;51.046;13.796;2023-03-04T14:17:54;100366.03;;;7.97;nan
62800;BME280;48842;51.046;13.796;2023-03-04T14:20:32;100374.81;;;8.02;nan
62800;BME280;48842;51.046;13.796;2023-03-04T14:23:00;100375.75;;;8.09;nan
62800;BME280;48842;51.046;13.796;2023-03-04T14:25:30;100369.63;;;8.05;nan
62800;BME280;48842;51.046;13.796;2023-03-04T14:28:11;100375.53;;;7.93;nan